Time;durP1;ratioP1;P1;durP2;ratioP2;P2;SDS_P1;SDS_P2;PMS_P1;PMS_P2;Temp;Humidity;BMP_temperature;BMP_pressure;BME280_temperature;BME280_humidity;BME280_pressure;Samples;Min_cycle;Max_cycle;Signal;HPM_P1;HPM_P2
2023/03/03 00:03:26;;;;;;;36.90;32.50;;;5.40;94.30;;;;;;10519552;28;20593;-79
2023/03/03 00:08:28;;;;;;;43.67;34.30;;;5.40;94.20;;;;;;10529703;28;20216;-78
2023/03/03 00:13:34;;;;;;;43.30;34.93;;;5.30;94.30;;;;;;10531386;28;20212;-78
2023/03/03 00:18:42;;;;;;;38.57;31.60;;;5.20;94.20;;;;;;10550042;28;20193;-77
2023/03/03 00:23:44;;;;;;;39.83;32.70;;;5.20;94.30;;;;;;10511428;28;20224;-78
2023/03/03 00:28:48;;;;;;;38.20;34.03;;;5.10;94.10;;;;;;10517067;28;20261;-78
2023/03/03 00:33:54;;;;;;;41.97;33.83;;;5.10;94.20;;;;;;10535377;28;20271;-79
2023/03/03 00:39:00;;;;;;;39.73;33.20;;;5.00;93.90;;;;;;10502444;28;20196;-79
2023/03/03 00:44:38;;;;;;;41.33;33.80;;;4.90;93.90;;;;;;10534196;28;20213;-79
2023/03/03 00:49:43;;;;;;;41.07;34.37;;;4.80;94.10;;;;;;10525642;28;20643;-77
2023/03/03 00:54:45;;;;;;;47.60;34.90;;;4.80;94.20;;;;;;10520436;28;20250;-79
2023/03/03 00:59:47;;;;;;;38.90;34.60;;;4.60;94.40;;;;;;10526200;28;20587;-78
2023/03/03 01:04:55;;;;;;;43.20;34.17;;;4.60;94.10;;;;;;10529282;28;20209;-78
2023/03/03 01:09:57;;;;;;;40.10;32.83;;;4.60;94.10;;;;;;10526061;28;20193;-79
2023/03/03 01:14:59;;;;;;;49.07;36.70;;;4.40;94.20;;;;;;10507739;28;20219;-80
2023/03/03 01:20:03;;;;;;;41.53;34.20;;;4.30;94.50;;;;;;10515744;28;20217;-77
2023/03/03 01:25:06;;;;;;;47.50;36.80;;;4.30;94.60;;;;;;10524442;28;20311;-80
2023/03/03 01:30:11;;;;;;;45.77;35.57;;;4.20;94.50;;;;;;10520492;28;20196;-78
2023/03/03 01:35:14;;;;;;;42.90;36.60;;;4.20;94.70;;;;;;10521666;28;20691;-79
2023/03/03 01:40:19;;;;;;;46.00;36.80;;;4.20;94.90;;;;;;10528409;28;20234;-78
2023/03/03 01:45:23;;;;;;;39.00;33.73;;;4.20;94.90;;;;;;10500622;28;20628;-80
2023/03/03 01:50:43;;;;;;;44.13;36.60;;;4.20;94.70;;;;;;10533463;28;20214;-79
2023/03/03 01:55:47;;;;;;;42.97;35.50;;;4.20;94.70;;;;;;10528182;28;20221;-80
2023/03/03 02:00:54;;;;;;;48.93;37.53;;;4.10;94.60;;;;;;10517860;28;20215;-80
2023/03/03 02:06:03;;;;;;;47.33;38.37;;;4.10;94.60;;;;;;10511631;28;20214;-79
2023/03/03 02:11:06;;;;;;;44.50;38.57;;;4.10;94.80;;;;;;10520932;28;20265;-80
2023/03/03 02:16:08;;;;;;;46.80;38.47;;;4.10;94.60;;;;;;10526342;28;20248;-79
2023/03/03 02:21:15;;;;;;;50.27;38.33;;;4.00;95.00;;;;;;10518452;28;20213;-79
2023/03/03 02:26:23;;;;;;;45.50;36.97;;;4.10;94.50;;;;;;10503126;28;20336;-80
2023/03/03 02:31:31;;;;;;;47.60;38.10;;;3.90;94.80;;;;;;10524457;28;20569;-78
2023/03/03 02:36:36;;;;;;;53.83;39.37;;;3.90;94.70;;;;;;10520113;28;20316;-80
2023/03/03 02:41:45;;;;;;;46.17;38.03;;;3.90;95.10;;;;;;10525396;28;20220;-80
2023/03/03 02:46:49;;;;;;;48.53;38.40;;;3.90;94.70;;;;;;10502541;28;20570;-79
2023/03/03 02:51:52;;;;;;;50.07;39.70;;;3.80;94.80;;;;;;10503066;28;20593;-80
2023/03/03 02:56:56;;;;;;;47.57;38.57;;;3.90;95.00;;;;;;10520900;28;20229;-79
2023/03/03 03:01:59;;;;;;;49.40;38.60;;;3.90;95.10;;;;;;10527805;28;20335;-79
2023/03/03 03:07:02;;;;;;;49.77;38.90;;;4.00;95.40;;;;;;10517254;28;20270;-79
2023/03/03 03:12:08;;;;;;;51.27;40.03;;;4.10;95.10;;;;;;10523291;28;20544;-80
2023/03/03 03:17:13;;;;;;;45.57;38.83;;;4.20;95.20;;;;;;10503474;28;20216;-79
2023/03/03 03:22:15;;;;;;;49.37;40.20;;;4.40;95.30;;;;;;10523736;28;20220;-79
2023/03/03 03:27:19;;;;;;;50.53;39.13;;;4.50;95.50;;;;;;10484809;28;20435;-79
2023/03/03 03:32:23;;;;;;;55.43;40.37;;;4.60;95.30;;;;;;10503472;28;20671;-78
2023/03/03 03:37:26;;;;;;;47.20;38.67;;;4.70;95.30;;;;;;10506000;28;20199;-78
2023/03/03 03:42:30;;;;;;;47.83;37.77;;;4.80;95.10;;;;;;10513558;28;20564;-79
2023/03/03 03:47:32;;;;;;;45.90;37.50;;;4.90;95.20;;;;;;10518908;28;20309;-79
2023/03/03 03:52:35;;;;;;;46.90;39.70;;;5.00;95.00;;;;;;10506578;28;20237;-79
2023/03/03 03:57:40;;;;;;;51.23;39.63;;;5.10;95.00;;;;;;10498837;28;20204;-79
2023/03/03 04:02:42;;;;;;;49.33;38.40;;;5.10;95.00;;;;;;10505608;28;20223;-78
2023/03/03 04:07:48;;;;;;;50.87;41.37;;;5.10;95.20;;;;;;10499204;28;20222;-79
2023/03/03 04:12:54;;;;;;;49.80;39.50;;;5.20;94.90;;;;;;10506249;28;20219;-79
2023/03/03 04:17:56;;;;;;;54.40;41.30;;;5.20;95.00;;;;;;10481875;28;20240;-79
2023/03/03 04:22:59;;;;;;;52.73;42.87;;;5.30;95.10;;;;;;10515981;28;20229;-79
2023/03/03 04:28:03;;;;;;;51.23;40.00;;;5.40;94.90;;;;;;10524046;28;20216;-79
2023/03/03 04:33:06;;;;;;;52.30;42.67;;;5.50;94.40;;;;;;10514891;28;20229;-79
2023/03/03 04:38:09;;;;;;;49.07;39.60;;;5.60;95.10;;;;;;10530973;28;20635;-80
2023/03/03 04:43:13;;;;;;;51.63;43.90;;;5.70;94.50;;;;;;10510456;28;20231;-80
2023/03/03 04:48:16;;;;;;;51.00;39.83;;;5.80;94.70;;;;;;10516130;28;20204;-79
2023/03/03 04:53:18;;;;;;;57.90;44.77;;;5.90;94.10;;;;;;10528597;28;20292;-80
2023/03/03 04:58:22;;;;;;;49.70;40.57;;;5.90;93.90;;;;;;10495132;28;20541;-79
2023/03/03 05:03:27;;;;;;;55.60;40.63;;;6.00;93.70;;;;;;10506140;28;20689;-80
2023/03/03 05:08:29;;;;;;;47.37;39.57;;;6.10;93.60;;;;;;10529688;28;20201;-79
2023/03/03 05:13:33;;;;;;;51.87;42.00;;;6.20;93.30;;;;;;10519075;28;20243;-79
2023/03/03 05:18:35;;;;;;;50.90;41.93;;;6.20;93.20;;;;;;10533531;28;20222;-78
2023/03/03 05:23:37;;;;;;;52.00;41.20;;;6.30;93.00;;;;;;10531366;28;20286;-78
2023/03/03 05:28:40;;;;;;;47.70;38.47;;;6.30;92.70;;;;;;10540575;28;20234;-79
2023/03/03 05:33:43;;;;;;;49.67;38.90;;;6.30;92.70;;;;;;10515840;28;20220;-80
2023/03/03 05:38:47;;;;;;;52.37;39.93;;;6.30;92.50;;;;;;10500405;28;20546;-80
2023/03/03 05:43:51;;;;;;;52.03;39.30;;;6.30;92.70;;;;;;10511930;28;20708;-81
2023/03/03 05:48:55;;;;;;;54.80;40.13;;;6.40;92.50;;;;;;10530932;28;20201;-78
2023/03/03 05:53:58;;;;;;;46.57;36.17;;;6.40;92.50;;;;;;10517590;28;20219;-77
2023/03/03 05:59:01;;;;;;;45.17;35.97;;;6.40;91.80;;;;;;10499933;28;20196;-79
2023/03/03 06:04:04;;;;;;;42.63;35.43;;;6.40;91.80;;;;;;10511524;28;20303;-79
2023/03/03 06:09:06;;;;;;;42.60;34.70;;;6.40;91.50;;;;;;10528604;28;20301;-76
2023/03/03 06:14:09;;;;;;;43.30;33.63;;;6.40;91.50;;;;;;10508608;28;20219;-77
2023/03/03 06:19:11;;;;;;;40.87;34.60;;;6.40;91.50;;;;;;10539681;28;20222;-77
2023/03/03 06:24:13;;;;;;;38.33;32.73;;;6.40;91.50;;;;;;10507434;28;20216;-77
2023/03/03 06:29:20;;;;;;;38.33;32.07;;;6.40;91.30;;;;;;10530883;28;20246;-78
2023/03/03 06:34:22;;;;;;;40.33;31.00;;;6.40;91.10;;;;;;10498729;28;20228;-78
2023/03/03 06:39:24;;;;;;;40.10;33.20;;;6.40;91.10;;;;;;10507161;28;20279;-79
2023/03/03 06:44:27;;;;;;;36.73;30.47;;;6.40;90.60;;;;;;10527209;28;20270;-80
2023/03/03 06:49:29;;;;;;;37.57;30.93;;;6.40;90.90;;;;;;10504131;28;20249;-78
2023/03/03 06:54:32;;;;;;;36.87;31.00;;;6.40;90.50;;;;;;10504410;28;20500;-78
2023/03/03 06:59:35;;;;;;;38.87;32.47;;;6.50;90.60;;;;;;10537776;28;20261;-80
2023/03/03 07:04:38;;;;;;;35.10;31.00;;;6.50;90.60;;;;;;10529679;28;20277;-79
2023/03/03 07:09:40;;;;;;;37.13;32.37;;;6.50;90.40;;;;;;10503324;28;20189;-77
2023/03/03 07:14:46;;;;;;;42.33;32.30;;;6.60;90.20;;;;;;10498071;28;20218;-80
2023/03/03 07:19:49;;;;;;;38.97;31.73;;;6.60;90.70;;;;;;10496876;28;20235;-79
2023/03/03 07:24:53;;;;;;;41.10;32.73;;;6.70;90.20;;;;;;10518756;28;20221;-78
2023/03/03 07:30:23;;;;;;;28.50;25.33;;;6.60;89.40;;;;;;10531298;28;20190;-78
2023/03/03 07:35:41;;;;;;;38.43;33.10;;;6.70;90.10;;;;;;10503727;28;20257;-81
2023/03/03 07:40:49;;;;;;;39.33;31.50;;;6.70;90.00;;;;;;10489523;28;20677;-80
2023/03/03 07:45:53;;;;;;;35.90;30.30;;;6.80;90.00;;;;;;10476510;28;20232;-79
2023/03/03 07:50:57;;;;;;;38.13;31.67;;;6.90;89.80;;;;;;10494910;28;20203;-81
2023/03/03 07:55:59;;;;;;;35.20;29.67;;;6.90;89.10;;;;;;10502747;28;20745;-78
2023/03/03 08:01:39;;;;;;;35.30;29.00;;;7.10;89.40;;;;;;10524249;28;20213;-79
2023/03/03 08:06:48;;;;;;;34.17;29.00;;;7.20;88.70;;;;;;10507598;28;20228;-79
2023/03/03 08:11:54;;;;;;;33.93;28.47;;;7.30;88.00;;;;;;10519194;28;20193;-79
2023/03/03 08:16:57;;;;;;;36.83;29.37;;;7.40;87.10;;;;;;10511093;28;20230;-78
2023/03/03 08:22:09;;;;;;;31.83;28.33;;;7.50;85.90;;;;;;10535529;28;20205;-78
2023/03/03 08:27:11;;;;;;;33.43;28.70;;;7.70;86.20;;;;;;10517126;28;20682;-77
2023/03/03 08:32:13;;;;;;;32.17;28.50;;;7.90;85.90;;;;;;10507304;28;20237;-77
2023/03/03 08:37:16;;;;;;;38.83;29.87;;;7.90;85.30;;;;;;10504476;28;20188;-79
2023/03/03 08:42:19;;;;;;;34.60;30.17;;;7.90;84.80;;;;;;10529537;28;20311;-79
2023/03/03 08:47:21;;;;;;;39.07;30.27;;;7.80;85.60;;;;;;10521803;28;20647;-79
2023/03/03 08:52:25;;;;;;;37.87;31.20;;;7.80;85.80;;;;;;10543201;28;20196;-79
2023/03/03 08:57:27;;;;;;;40.77;34.47;;;7.80;86.20;;;;;;10529400;28;20195;-79
2023/03/03 09:02:29;;;;;;;40.30;30.20;;;7.80;85.30;;;;;;10519321;28;20228;-79
2023/03/03 09:07:34;;;;;;;39.20;31.60;;;7.80;85.80;;;;;;10531354;28;20227;-79
2023/03/03 09:12:38;;;;;;;37.73;28.67;;;7.90;86.20;;;;;;10517339;28;20273;-79
2023/03/03 09:17:41;;;;;;;38.20;30.60;;;7.90;85.90;;;;;;10530047;28;20200;-79
2023/03/03 09:22:45;;;;;;;38.10;31.37;;;8.00;86.40;;;;;;10517397;28;20217;-78
2023/03/03 09:27:47;;;;;;;34.13;30.40;;;8.20;86.50;;;;;;10529768;28;20209;-78
2023/03/03 09:32:49;;;;;;;37.80;29.50;;;8.50;86.40;;;;;;10515271;28;20241;-78
2023/03/03 09:37:53;;;;;;;39.30;31.73;;;8.80;85.80;;;;;;10517428;28;20190;-78
2023/03/03 09:43:04;;;;;;;37.43;28.60;;;9.00;84.30;;;;;;10521570;28;20697;-79
2023/03/03 09:48:29;;;;;;;38.73;30.27;;;9.20;83.60;;;;;;10530436;28;20208;-79
2023/03/03 09:53:44;;;;;;;35.23;29.17;;;9.30;83.90;;;;;;10515087;28;20223;-78
2023/03/03 09:58:59;;;;;;;32.20;28.70;;;9.40;82.70;;;;;;10521898;28;20204;-79
2023/03/03 10:04:16;;;;;;;34.27;29.80;;;9.40;82.60;;;;;;10527545;28;20223;-79
2023/03/03 10:09:44;;;;;;;31.47;28.13;;;9.40;82.70;;;;;;10529602;28;20192;-81
2023/03/03 10:15:00;;;;;;;36.70;31.73;;;9.40;83.40;;;;;;10503880;28;20278;-81
2023/03/03 10:20:17;;;;;;;35.50;30.03;;;9.50;83.10;;;;;;10522086;28;20198;-78
2023/03/03 10:25:42;;;;;;;31.33;27.73;;;9.70;83.20;;;;;;10574841;28;20255;-78
2023/03/03 10:30:52;;;;;;;32.97;28.63;;;9.80;81.90;;;;;;10517066;28;20223;-80
2023/03/03 10:36:12;;;;;;;41.50;31.90;;;9.90;82.70;;;;;;10492373;28;20887;-78
2023/03/03 10:41:29;;;;;;;32.90;29.40;;;9.90;82.20;;;;;;10531243;28;20229;-80
2023/03/03 10:46:45;;;;;;;33.63;30.03;;;9.90;82.60;;;;;;10503731;28;20243;-81
2023/03/03 10:52:03;;;;;;;37.50;29.90;;;9.90;79.90;;;;;;10524061;28;20201;-81
2023/03/03 10:57:18;;;;;;;36.20;29.60;;;9.80;81.80;;;;;;10540270;28;20310;-81
2023/03/03 11:02:27;;;;;;;33.50;29.10;;;9.80;82.90;;;;;;10503883;28;20270;-80
2023/03/03 11:07:35;;;;;;;35.53;29.53;;;9.80;80.30;;;;;;10500434;28;20294;-81
2023/03/03 11:12:49;;;;;;;33.97;29.80;;;9.70;82.00;;;;;;10517062;28;20685;-80
2023/03/03 11:18:11;;;;;;;34.97;30.10;;;9.80;82.00;;;;;;10545826;28;20199;-81
2023/03/03 11:23:32;;;;;;;35.23;30.30;;;9.90;81.70;;;;;;10466138;28;20705;-80
2023/03/03 11:28:52;;;;;;;32.00;28.57;;;10.10;81.80;;;;;;10517504;28;20191;-81
2023/03/03 11:34:01;;;;;;;33.30;29.00;;;10.30;81.00;;;;;;10537594;28;20221;-79
2023/03/03 11:39:05;;;;;;;34.43;30.80;;;10.50;79.40;;;;;;10505826;28;20259;-78
2023/03/03 11:44:18;;;;;;;35.10;31.27;;;10.50;79.80;;;;;;10533812;28;20227;-78
2023/03/03 11:49:25;;;;;;;36.37;30.20;;;10.60;81.10;;;;;;10502572;28;20191;-79
2023/03/03 11:54:30;;;;;;;33.23;29.70;;;10.70;80.30;;;;;;10515852;28;20748;-78
2023/03/03 11:59:44;;;;;;;34.10;28.13;;;10.90;78.10;;;;;;10504502;28;20561;-78
2023/03/03 12:04:50;;;;;;;33.57;28.90;;;10.90;79.50;;;;;;10530798;28;20269;-78
2023/03/03 12:10:07;;;;;;;32.97;29.30;;;11.00;78.40;;;;;;10490630;28;20196;-78
2023/03/03 12:15:19;;;;;;;31.83;28.50;;;10.90;77.50;;;;;;10536170;28;20281;-78
2023/03/03 12:20:27;;;;;;;33.80;29.10;;;10.60;79.00;;;;;;10517749;28;20286;-78
2023/03/03 12:25:35;;;;;;;31.57;28.30;;;10.40;78.40;;;;;;10535546;28;20256;-78
2023/03/03 12:30:56;;;;;;;36.97;31.87;;;10.10;80.50;;;;;;10520788;28;20199;-78
2023/03/03 12:36:10;;;;;;;34.80;31.07;;;10.00;79.80;;;;;;10529755;28;20218;-77
2023/03/03 12:41:20;;;;;;;31.80;28.40;;;9.80;81.30;;;;;;10500825;28;20196;-77
2023/03/03 12:46:32;;;;;;;35.53;28.30;;;9.70;82.60;;;;;;10491915;28;20596;-77
2023/03/03 12:51:48;;;;;;;34.23;28.30;;;9.70;83.70;;;;;;10500153;28;20578;-77
2023/03/03 12:56:54;;;;;;;31.80;28.50;;;9.60;81.90;;;;;;10499865;28;20310;-78
2023/03/03 13:02:15;;;;;;;30.93;26.63;;;9.60;83.40;;;;;;10523239;28;20287;-77
2023/03/03 13:07:23;;;;;;;32.33;26.80;;;9.50;83.10;;;;;;10520943;28;20201;-77
2023/03/03 13:12:33;;;;;;;32.17;26.77;;;9.50;83.40;;;;;;10527822;28;20194;-78
2023/03/03 13:17:46;;;;;;;30.43;27.27;;;9.50;82.60;;;;;;10522111;28;20195;-78
2023/03/03 13:22:54;;;;;;;31.30;27.37;;;9.60;81.60;;;;;;10525089;28;20273;-78
2023/03/03 13:28:03;;;;;;;32.20;27.53;;;9.50;82.90;;;;;;10521097;28;20327;-79
2023/03/03 13:33:11;;;;;;;30.40;27.00;;;9.60;82.80;;;;;;10505865;28;20220;-79
2023/03/03 13:38:20;;;;;;;31.33;26.30;;;9.60;84.00;;;;;;10528125;28;20245;-80
2023/03/03 13:43:26;;;;;;;34.00;27.40;;;9.60;84.20;;;;;;10520667;28;20228;-80
2023/03/03 13:48:39;;;;;;;30.80;27.50;;;9.60;82.90;;;;;;10524816;28;20257;-80
2023/03/03 13:53:49;;;;;;;32.40;28.07;;;9.60;85.00;;;;;;10512493;28;20247;-80
2023/03/03 13:59:00;;;;;;;28.70;25.83;;;9.60;85.50;;;;;;10530692;28;20200;-81
2023/03/03 14:04:13;;;;;;;30.93;25.70;;;9.60;84.00;;;;;;10500717;28;20510;-80
2023/03/03 14:09:39;;;;;;;34.93;27.27;;;9.70;84.50;;;;;;10533668;28;20283;-80
2023/03/03 14:14:51;;;;;;;31.77;28.37;;;9.60;83.40;;;;;;10501572;28;20429;-81
2023/03/03 14:20:03;;;;;;;30.57;27.37;;;9.70;84.40;;;;;;10522107;28;20575;-80
2023/03/03 14:25:07;;;;;;;30.50;27.03;;;9.70;82.80;;;;;;10520498;28;20232;-81
2023/03/03 14:30:31;;;;;;;34.23;28.47;;;9.80;84.20;;;;;;10540938;28;20667;-80
2023/03/03 14:35:37;;;;;;;35.63;28.43;;;9.80;83.80;;;;;;10543303;22;20258;-82
2023/03/03 14:40:41;;;;;;;33.87;29.33;;;9.80;84.40;;;;;;10503530;28;20203;-82
2023/03/03 14:45:44;;;;;;;32.33;28.63;;;9.80;84.10;;;;;;10465601;28;20244;-80
2023/03/03 14:50:51;;;;;;;36.87;30.00;;;9.80;83.80;;;;;;10470312;28;20622;-81
2023/03/03 14:55:54;;;;;;;29.93;26.73;;;9.80;85.20;;;;;;10460124;28;20247;-81
2023/03/03 15:01:15;;;;;;;35.67;29.50;;;9.80;85.00;;;;;;10459851;28;20259;-81
2023/03/03 15:06:40;;;;;;;39.00;30.30;;;9.80;82.90;;;;;;10459613;28;20220;-81
2023/03/03 15:11:44;;;;;;;34.73;29.47;;;9.80;83.60;;;;;;10453562;28;20208;-81
2023/03/03 15:16:47;;;;;;;36.13;29.63;;;9.80;84.20;;;;;;10442019;28;20214;-81
2023/03/03 15:22:01;;;;;;;35.17;29.80;;;9.80;85.30;;;;;;10458426;28;20207;-81
2023/03/03 15:27:09;;;;;;;34.40;30.40;;;9.80;84.00;;;;;;10419318;28;20689;-81
2023/03/03 15:32:19;;;;;;;34.77;30.97;;;9.80;84.10;;;;;;10443142;28;20197;-81
2023/03/03 15:37:38;;;;;;;34.47;29.40;;;9.80;85.70;;;;;;10464716;28;20315;-81
2023/03/03 15:42:48;;;;;;;36.80;30.30;;;9.80;85.00;;;;;;10465047;28;20314;-82
2023/03/03 15:48:11;;;;;;;30.87;27.57;;;9.80;84.70;;;;;;10470042;28;20205;-83
2023/03/03 15:53:35;;;;;;;34.00;29.80;;;9.90;85.30;;;;;;10441507;28;20217;-81
2023/03/03 15:59:04;;;;;;;36.70;29.67;;;9.90;86.60;;;;;;10440160;28;20217;-81
2023/03/03 16:04:11;;;;;;;34.10;29.07;;;9.90;87.00;;;;;;10450799;28;20228;-81
2023/03/03 16:09:28;;;;;;;38.20;29.83;;;9.80;86.00;;;;;;10449047;28;20291;-83
2023/03/03 16:14:44;;;;;;;34.90;29.97;;;9.80;87.20;;;;;;10434977;28;20678;-82
2023/03/03 16:19:52;;;;;;;35.90;30.47;;;9.80;88.00;;;;;;10465605;28;20204;-82
2023/03/03 16:25:14;;;;;;;37.07;32.47;;;9.70;88.10;;;;;;10458257;28;20229;-83
2023/03/03 16:30:27;;;;;;;34.37;29.90;;;9.70;87.50;;;;;;10459637;28;20201;-82
2023/03/03 16:35:33;;;;;;;37.20;30.73;;;9.70;87.10;;;;;;10460576;28;20628;-85
2023/03/03 16:40:44;;;;;;;35.77;29.60;;;9.60;88.10;;;;;;10443558;28;20256;-84
2023/03/03 16:45:47;;;;;;;39.37;29.23;;;9.60;88.20;;;;;;10455628;28;20216;-81
2023/03/03 16:51:03;;;;;;;35.40;28.40;;;9.60;88.70;;;;;;10470425;28;20200;-82
2023/03/03 16:56:19;;;;;;;37.63;30.70;;;9.60;88.00;;;;;;10478891;28;20256;-83
2023/03/03 17:01:32;;;;;;;36.93;31.57;;;9.50;88.30;;;;;;10450498;28;20206;-82
2023/03/03 17:06:51;;;;;;;37.10;31.50;;;9.40;88.60;;;;;;10462280;28;20216;-82
2023/03/03 17:12:08;;;;;;;43.03;34.90;;;9.40;88.10;;;;;;10467761;28;20198;-83
2023/03/03 17:17:18;;;;;;;41.70;33.03;;;9.30;86.60;;;;;;10466733;28;20251;-83
2023/03/03 17:22:27;;;;;;;41.10;33.03;;;9.30;85.70;;;;;;10463670;28;20196;-84
2023/03/03 17:27:39;;;;;;;38.30;30.80;;;9.20;85.30;;;;;;10465643;28;20233;-85
2023/03/03 17:33:22;;;;;;;38.10;30.40;;;9.00;86.30;;;;;;10468957;28;20305;-84
2023/03/03 17:38:35;;;;;;;36.50;32.37;;;8.70;86.30;;;;;;10445842;28;20304;-85
2023/03/03 17:43:47;;;;;;;40.63;32.23;;;8.50;87.10;;;;;;10461762;28;20219;-84
2023/03/03 17:49:16;;;;;;;52.60;39.53;;;8.40;86.90;;;;;;10461029;28;20286;-84
2023/03/03 17:54:46;;;;;;;40.33;33.10;;;8.20;87.80;;;;;;10458174;28;20225;-82
2023/03/03 18:00:06;;;;;;;41.90;35.70;;;8.10;88.10;;;;;;10460030;28;20206;-83
2023/03/03 18:05:31;;;;;;;39.13;33.20;;;8.00;88.30;;;;;;10443562;28;20243;-84
2023/03/03 18:11:03;;;;;;;42.20;32.40;;;7.90;88.70;;;;;;10462597;28;20281;-83
2023/03/03 18:16:21;;;;;;;40.77;33.30;;;7.80;88.90;;;;;;10453884;28;20272;-84
2023/03/03 18:21:26;;;;;;;64.10;46.30;;;7.70;89.20;;;;;;10459799;28;20204;-83
2023/03/03 18:26:40;;;;;;;55.70;37.43;;;7.60;89.00;;;;;;10461778;28;20257;-83
2023/03/03 18:32:05;;;;;;;56.20;38.73;;;7.50;89.60;;;;;;10473885;28;20209;-83
2023/03/03 18:37:32;;;;;;;42.77;35.73;;;7.50;89.60;;;;;;10463737;28;20225;-82
2023/03/03 18:42:37;;;;;;;43.43;36.47;;;7.50;89.70;;;;;;10446299;28;20304;-82
2023/03/03 18:48:07;;;;;;;41.80;34.53;;;7.30;90.20;;;;;;10447386;28;20218;-83
2023/03/03 18:53:23;;;;;;;39.53;32.43;;;7.30;90.20;;;;;;10448887;28;20217;-83
2023/03/03 18:58:35;;;;;;;41.03;32.33;;;7.20;90.70;;;;;;10459791;28;20205;-82
2023/03/03 19:04:00;;;;;;;42.37;34.10;;;7.20;90.30;;;;;;10442347;28;20217;-82
2023/03/03 19:09:04;;;;;;;42.53;33.50;;;7.10;90.40;;;;;;10455847;28;20193;-82
2023/03/03 19:14:19;;;;;;;44.10;35.83;;;7.00;90.70;;;;;;10453311;28;20258;-82
2023/03/03 19:19:25;;;;;;;41.30;34.77;;;6.90;90.60;;;;;;10459048;28;20203;-83
2023/03/03 19:24:33;;;;;;;42.70;35.83;;;6.90;90.70;;;;;;10435987;28;20209;-82
2023/03/03 19:30:21;;;;;;;42.73;37.40;;;6.90;90.70;;;;;;10452042;28;20580;-82
2023/03/03 19:35:34;;;;;;;41.77;33.63;;;6.80;91.00;;;;;;10428205;28;20294;-84
2023/03/03 19:40:45;;;;;;;42.70;34.57;;;6.80;90.90;;;;;;10454288;28;20211;-84
2023/03/03 19:46:04;;;;;;;45.30;37.17;;;6.80;91.00;;;;;;10460429;28;20289;-82
2023/03/03 19:51:14;;;;;;;45.47;37.50;;;6.80;91.10;;;;;;10463731;28;20202;-85
2023/03/03 19:56:21;;;;;;;50.13;40.30;;;6.70;91.10;;;;;;10487960;28;20251;-83
2023/03/03 20:01:29;;;;;;;46.23;36.90;;;6.70;91.30;;;;;;10458209;28;20217;-85
2023/03/03 20:06:50;;;;;;;47.57;39.50;;;6.60;91.40;;;;;;10457396;28;20224;-84
2023/03/03 20:12:10;;;;;;;47.37;38.80;;;6.60;91.30;;;;;;10457439;28;20288;-84
2023/03/03 20:17:34;;;;;;;45.57;35.97;;;6.60;91.30;;;;;;10439848;28;20885;-82
2023/03/03 20:22:51;;;;;;;43.07;36.63;;;6.50;91.30;;;;;;10456895;28;20204;-82
2023/03/03 20:28:03;;;;;;;46.07;35.23;;;6.40;91.50;;;;;;10434510;28;20229;-83
2023/03/03 20:33:23;;;;;;;44.57;36.00;;;6.30;91.40;;;;;;10439152;28;20251;-81
2023/03/03 20:38:38;;;;;;;51.73;39.17;;;6.30;91.60;;;;;;10456613;28;20724;-81
2023/03/03 20:43:55;;;;;;;44.70;37.90;;;6.20;91.60;;;;;;10457507;28;20618;-82
2023/03/03 20:49:16;;;;;;;48.63;37.87;;;6.10;91.60;;;;;;10456343;28;20518;-82
2023/03/03 20:54:29;;;;;;;44.40;35.80;;;6.00;91.90;;;;;;10438042;28;20260;-81
2023/03/03 20:59:36;;;;;;;45.20;34.80;;;5.90;91.80;;;;;;10458694;28;20234;-81
2023/03/03 21:04:38;;;;;;;41.30;34.80;;;5.90;92.10;;;;;;10461336;28;20302;-82
2023/03/03 21:09:42;;;;;;;43.67;34.77;;;5.90;92.00;;;;;;10438694;28;20559;-80
2023/03/03 21:14:59;;;;;;;38.70;33.27;;;5.90;91.80;;;;;;10456854;28;20360;-82
2023/03/03 21:20:20;;;;;;;44.13;34.60;;;5.90;91.70;;;;;;10455566;28;20199;-80
2023/03/03 21:25:46;;;;;;;44.40;33.47;;;5.80;91.90;;;;;;10455738;28;20222;-81
2023/03/03 21:31:12;;;;;;;41.87;33.17;;;5.80;92.10;;;;;;10449053;28;20288;-82
2023/03/03 21:36:16;;;;;;;41.37;32.20;;;5.80;92.00;;;;;;10453873;28;20224;-81
2023/03/03 21:41:20;;;;;;;42.30;32.73;;;5.70;92.00;;;;;;10468145;28;20669;-82
2023/03/03 21:46:24;;;;;;;41.73;33.80;;;5.60;92.30;;;;;;10461035;28;20218;-82
2023/03/03 21:51:27;;;;;;;37.50;29.90;;;5.60;92.30;;;;;;10457030;28;20201;-82
2023/03/03 21:56:33;;;;;;;38.53;30.23;;;5.70;92.30;;;;;;10454594;28;20328;-82
2023/03/03 22:01:35;;;;;;;42.37;32.37;;;5.60;92.50;;;;;;10453628;28;20685;-82
2023/03/03 22:06:37;;;;;;;37.90;31.50;;;5.60;92.20;;;;;;10461610;28;20225;-83
2023/03/03 22:11:40;;;;;;;38.83;30.20;;;5.60;92.30;;;;;;10463745;28;20190;-83
2023/03/03 22:16:43;;;;;;;41.07;31.10;;;5.50;92.50;;;;;;10454555;28;20225;-83
2023/03/03 22:21:45;;;;;;;36.70;30.20;;;5.50;92.40;;;;;;10479324;28;20217;-83
2023/03/03 22:26:48;;;;;;;38.00;29.57;;;5.40;92.50;;;;;;10451303;28;20300;-82
2023/03/03 22:31:51;;;;;;;37.13;30.60;;;5.50;92.30;;;;;;10444422;28;20199;-83
2023/03/03 22:36:53;;;;;;;36.17;29.67;;;5.30;92.40;;;;;;10462491;28;20295;-83
2023/03/03 22:41:56;;;;;;;36.70;31.23;;;5.30;92.60;;;;;;10462839;28;20252;-83
2023/03/03 22:46:58;;;;;;;41.00;34.60;;;5.30;92.60;;;;;;10476735;28;20222;-82
2023/03/03 22:52:01;;;;;;;38.40;30.10;;;5.30;92.50;;;;;;10442658;28;20733;-80
2023/03/03 22:57:04;;;;;;;37.67;29.27;;;5.30;92.50;;;;;;10456581;28;20291;-79
2023/03/03 23:02:06;;;;;;;38.90;31.87;;;5.20;92.50;;;;;;10461748;28;20285;-81
2023/03/03 23:07:36;;;;;;;39.20;30.87;;;5.10;92.60;;;;;;10422884;22;20230;-81
2023/03/03 23:13:34;;;;;;;34.70;29.63;;;5.10;92.60;;;;;;10390850;28;20275;-80
2023/03/03 23:25:04;;;;;;;35.83;29.40;;;5.10;92.70;;;;;;10425188;28;20207;-80
2023/03/03 23:30:11;;;;;;;34.20;27.03;;;5.00;92.60;;;;;;10417545;28;20230;-79
2023/03/03 23:35:13;;;;;;;37.83;30.03;;;5.00;92.50;;;;;;10412801;28;20209;-79
2023/03/03 23:40:16;;;;;;;44.50;33.73;;;4.90;92.70;;;;;;10413160;28;20209;-80
2023/03/03 23:45:20;;;;;;;56.90;39.40;;;4.90;92.70;;;;;;10411928;28;20216;-79
2023/03/03 23:50:22;;;;;;;51.50;39.37;;;4.90;93.00;;;;;;10413292;28;20260;-78
2023/03/03 23:55:24;;;;;;;38.17;30.83;;;4.90;92.80;;;;;;10379937;28;20217;-78
